Time;durP1;ratioP1;P1;durP2;ratioP2;P2;SDS_P1;SDS_P2;PMS_P1;PMS_P2;Temp;Humidity;BMP_temperature;BMP_pressure;BME280_temperature;BME280_humidity;BME280_pressure;Samples;Min_cycle;Max_cycle;Signal;HPM_P1;HPM_P2
2024/03/31 00:00:26;;;;;;;13.25;8.20;;;;;;;8.01;100.00;99626.69;5005314;28;20026;-72
2024/03/31 00:02:52;;;;;;;17.58;9.55;;;;;;;7.98;100.00;99621.84;5020246;28;20100;-72
2024/03/31 00:05:18;;;;;;;15.20;8.85;;;;;;;7.94;100.00;99620.59;5019834;28;20439;-73
2024/03/31 00:07:43;;;;;;;15.02;8.15;;;;;;;7.88;100.00;99610.94;5020709;28;20034;-72
2024/03/31 00:10:09;;;;;;;17.52;9.70;;;;;;;7.86;100.00;99597.41;5005984;28;21437;-73
2024/03/31 00:12:35;;;;;;;16.25;9.70;;;;;;;7.85;100.00;99598.34;5005227;28;20069;-73
2024/03/31 00:15:00;;;;;;;17.95;10.02;;;;;;;7.82;100.00;99589.19;5004779;28;20034;-72
2024/03/31 00:17:26;;;;;;;18.52;11.18;;;;;;;7.78;100.00;99595.66;5001226;28;20073;-73
2024/03/31 00:19:52;;;;;;;17.52;10.18;;;;;;;7.73;100.00;99603.88;5020858;28;20037;-72
2024/03/31 00:22:17;;;;;;;16.20;10.48;;;;;;;7.67;100.00;99599.41;5017717;28;20043;-72
2024/03/31 00:24:43;;;;;;;16.23;9.98;;;;;;;7.63;100.00;99602.47;5007842;28;20400;-73
2024/03/31 00:27:09;;;;;;;13.70;9.07;;;;;;;7.57;100.00;99615.06;5001747;28;20574;-73
2024/03/31 00:29:35;;;;;;;14.98;8.52;;;;;;;7.46;100.00;99620.56;5008027;28;20092;-73
2024/03/31 00:32:00;;;;;;;20.63;9.60;;;;;;;7.40;100.00;99626.38;5002749;28;20044;-73
2024/03/31 00:34:26;;;;;;;16.63;9.60;;;;;;;7.35;100.00;99631.22;5018576;28;20089;-73
2024/03/31 00:36:51;;;;;;;23.52;10.57;;;;;;;7.33;100.00;99633.97;5015776;28;20045;-73
2024/03/31 00:39:17;;;;;;;19.08;10.88;;;;;;;7.33;100.00;99628.00;5018791;28;20041;-72
2024/03/31 00:41:43;;;;;;;18.02;10.35;;;;;;;7.34;100.00;99637.34;5003888;28;20036;-73
2024/03/31 00:44:09;;;;;;;17.92;10.65;;;;;;;7.34;100.00;99637.34;5004050;28;20025;-72
2024/03/31 00:46:34;;;;;;;21.17;11.25;;;;;;;7.34;100.00;99637.34;5004045;28;20057;-72
2024/03/31 00:49:00;;;;;;;19.35;10.52;;;;;;;7.31;100.00;99630.75;5015663;28;20088;-73
2024/03/31 00:51:25;;;;;;;18.40;10.18;;;;;;;7.25;100.00;99639.09;5004777;28;20091;-73
2024/03/31 00:53:51;;;;;;;17.10;9.75;;;;;;;7.19;100.00;99638.00;5004529;28;20579;-73
2024/03/31 00:56:16;;;;;;;16.58;9.80;;;;;;;7.17;100.00;99639.94;5008052;28;20041;-72
2024/03/31 00:58:42;;;;;;;15.85;10.55;;;;;;;7.17;100.00;99639.13;5000224;28;20042;-73
2024/03/31 01:01:10;;;;;;;19.23;10.65;;;;;;;7.16;100.00;99634.94;5001689;28;20057;-72
2024/03/31 01:03:35;;;;;;;19.52;10.00;;;;;;;7.14;100.00;99629.94;5020330;28;20042;-72
2024/03/31 01:06:08;;;;;;;14.60;9.50;;;;;;;7.14;100.00;99629.13;4997933;28;20054;-72
2024/03/31 01:08:33;;;;;;;15.82;9.70;;;;;;;7.05;100.00;99618.03;5019836;28;20033;-72
2024/03/31 01:10:59;;;;;;;16.55;10.18;;;;;;;6.96;100.00;99611.25;5023003;28;20042;-73
2024/03/31 01:13:25;;;;;;;13.68;9.18;;;;;;;6.90;100.00;99611.91;5021913;28;20030;-72
2024/03/31 01:15:52;;;;;;;17.85;9.55;;;;;;;6.83;100.00;99615.13;5008583;28;22176;-73
2024/03/31 01:18:18;;;;;;;15.38;9.65;;;;;;;6.82;100.00;99605.00;5024583;28;20038;-73
2024/03/31 01:20:43;;;;;;;15.80;8.82;;;;;;;6.78;100.00;99609.66;5019585;28;20029;-73
2024/03/31 01:23:12;;;;;;;14.07;9.32;;;;;;;6.76;100.00;99609.00;5024253;28;20034;-73
2024/03/31 01:25:38;;;;;;;14.77;9.57;;;;;;;6.76;100.00;99610.75;5021591;28;20026;-72
2024/03/31 01:28:05;;;;;;;19.27;9.35;;;;;;;6.77;100.00;99605.44;4983577;28;20038;-73
2024/03/31 01:30:31;;;;;;;16.73;10.20;;;;;;;6.79;100.00;99615.59;4983144;28;20026;-72
2024/03/31 01:32:57;;;;;;;17.85;11.00;;;;;;;6.80;100.00;99624.97;5016015;28;20035;-73
2024/03/31 01:35:23;;;;;;;22.67;12.18;;;;;;;6.82;100.00;99626.41;5019972;28;20117;-72
2024/03/31 01:37:49;;;;;;;18.67;11.30;;;;;;;6.83;100.00;99629.78;5018905;28;20037;-72
2024/03/31 01:40:15;;;;;;;21.48;12.25;;;;;;;6.84;100.00;99636.56;5019214;28;20523;-72
2024/03/31 01:42:40;;;;;;;20.55;11.88;;;;;;;6.79;100.00;99633.66;5021462;28;20057;-72
2024/03/31 01:45:06;;;;;;;15.85;10.18;;;;;;;6.75;100.00;99628.00;5019840;28;20113;-72
2024/03/31 01:47:31;;;;;;;16.95;10.63;;;;;;;6.74;100.00;99625.56;5003336;28;20448;-73
2024/03/31 01:49:57;;;;;;;18.50;10.88;;;;;;;6.71;100.00;99634.44;4990736;28;20516;-72
2024/03/31 01:52:22;;;;;;;15.77;10.38;;;;;;;6.67;100.00;99625.44;5003766;28;20064;-72
2024/03/31 01:54:48;;;;;;;16.10;9.52;;;;;;;6.65;100.00;99627.34;5019453;28;20045;-72
2024/03/31 01:57:13;;;;;;;17.55;10.68;;;;;;;6.64;100.00;99618.00;5002502;28;20072;-73
2024/03/31 01:59:39;;;;;;;20.08;11.88;;;;;;;6.62;100.00;99614.78;5024565;28;20030;-73
2024/03/31 02:02:04;;;;;;;23.90;13.30;;;;;;;6.59;100.00;99615.09;5005978;28;20037;-72
2024/03/31 02:04:30;;;;;;;25.40;13.52;;;;;;;6.59;100.00;99618.50;5025056;28;20026;-72
2024/03/31 02:06:55;;;;;;;20.98;11.93;;;;;;;6.59;100.00;99623.66;4992428;28;20046;-72
2024/03/31 02:09:21;;;;;;;21.02;12.93;;;;;;;6.60;100.00;99621.88;5005491;28;20037;-72
2024/03/31 02:11:46;;;;;;;25.77;13.00;;;;;;;6.62;100.00;99617.34;5004824;28;20041;-72
2024/03/31 02:14:11;;;;;;;25.30;13.55;;;;;;;6.62;100.00;99614.78;5022986;28;20037;-72
2024/03/31 02:16:37;;;;;;;24.55;13.70;;;;;;;6.64;100.00;99618.00;5021811;28;20038;-72
2024/03/31 02:19:02;;;;;;;21.25;13.13;;;;;;;6.65;100.00;99617.06;5021968;28;20029;-72
2024/03/31 02:21:28;;;;;;;21.10;12.73;;;;;;;6.63;100.00;99617.22;5005310;28;20038;-72
2024/03/31 02:23:53;;;;;;;22.45;12.63;;;;;;;6.60;100.00;99621.88;5010320;28;20631;-72
2024/03/31 02:26:19;;;;;;;21.42;12.77;;;;;;;6.56;100.00;99626.53;5020289;28;20476;-72
2024/03/31 02:28:44;;;;;;;21.88;12.80;;;;;;;6.56;100.00;99639.41;5023861;28;20404;-72
2024/03/31 02:31:09;;;;;;;21.05;12.75;;;;;;;6.57;100.00;99627.31;5003703;28;20228;-72
2024/03/31 02:33:35;;;;;;;18.92;11.98;;;;;;;6.59;100.00;99621.06;5006050;28;20038;-73
2024/03/31 02:36:01;;;;;;;22.55;13.55;;;;;;;6.60;100.00;99630.38;5004780;28;20050;-72
2024/03/31 02:38:26;;;;;;;24.20;13.50;;;;;;;6.60;100.00;99632.16;5022046;28;20072;-73
2024/03/31 02:40:52;;;;;;;21.65;12.55;;;;;;;6.59;100.00;99615.91;5006793;28;20033;-72
2024/03/31 02:43:17;;;;;;;22.90;13.88;;;;;;;6.62;100.00;99609.63;5021807;28;20030;-73
2024/03/31 02:45:47;;;;;;;23.67;14.85;;;;;;;6.59;100.00;99605.63;5004709;28;20029;-73
2024/03/31 02:48:13;;;;;;;24.85;13.57;;;;;;;6.57;100.00;99607.53;5005934;28;20033;-71
2024/03/31 02:50:38;;;;;;;25.92;14.13;;;;;;;6.56;100.00;99615.44;5022937;28;20027;-72
2024/03/31 02:53:04;;;;;;;27.38;14.40;;;;;;;6.54;100.00;99604.47;5006470;28;20038;-72
2024/03/31 02:55:29;;;;;;;22.58;14.25;;;;;;;6.54;100.00;99604.47;5004037;28;20030;-72
2024/03/31 02:57:54;;;;;;;24.35;14.15;;;;;;;6.54;100.00;99607.84;5021294;28;20042;-73
2024/03/31 03:00:20;;;;;;;23.70;14.35;;;;;;;6.56;100.00;99605.91;5021429;28;20054;-72
2024/03/31 03:02:45;;;;;;;26.65;14.30;;;;;;;6.58;100.00;99595.47;5006905;28;20033;-72
2024/03/31 03:05:11;;;;;;;23.20;13.45;;;;;;;6.62;100.00;99601.91;5022781;28;20095;-72
2024/03/31 03:07:36;;;;;;;27.58;14.88;;;;;;;6.63;100.00;99603.53;5020481;28;21289;-72
2024/03/31 03:10:03;;;;;;;28.05;15.13;;;;;;;6.64;100.00;99612.84;5033435;28;20061;-73
2024/03/31 03:12:29;;;;;;;23.40;14.00;;;;;;;6.66;100.00;99618.66;5004490;28;20049;-73
2024/03/31 03:14:54;;;;;;;23.52;13.70;;;;;;;6.69;100.00;99607.25;5007950;28;20144;-73
2024/03/31 03:17:20;;;;;;;24.25;13.88;;;;;;;6.71;100.00;99618.97;5006592;28;20512;-73
2024/03/31 03:19:46;;;;;;;26.08;15.45;;;;;;;6.72;100.00;99612.84;5020337;28;20510;-73
2024/03/31 03:22:12;;;;;;;26.83;14.50;;;;;;;6.74;100.00;99613.53;4988576;28;20043;-73
2024/03/31 03:24:37;;;;;;;24.75;14.88;;;;;;;6.76;100.00;99611.59;5005251;28;20037;-74
2024/03/31 03:27:03;;;;;;;27.67;15.55;;;;;;;6.82;100.00;99612.72;5023650;28;20045;-73
2024/03/31 03:29:29;;;;;;;27.25;15.27;;;;;;;6.82;100.00;99616.09;5006524;28;20029;-74
2024/03/31 03:31:54;;;;;;;25.38;14.45;;;;;;;6.82;100.00;99599.84;5004880;28;20041;-74
2024/03/31 03:34:20;;;;;;;25.45;15.95;;;;;;;6.88;100.00;99598.38;5023113;28;20091;-73
2024/03/31 03:36:47;;;;;;;26.52;15.85;;;;;;;6.91;100.00;99590.31;5005327;28;20659;-73
2024/03/31 03:39:17;;;;;;;32.70;17.95;;;;;;;6.91;100.00;99574.84;5007003;28;20037;-74
2024/03/31 03:41:43;;;;;;;26.58;15.43;;;;;;;6.87;100.00;99587.25;5020984;28;20407;-72
2024/03/31 03:44:09;;;;;;;31.30;17.75;;;;;;;6.92;100.00;99597.88;5023804;28;20067;-72
2024/03/31 03:46:34;;;;;;;28.23;16.95;;;;;;;7.04;100.00;99615.59;5019284;28;20444;-72
2024/03/31 03:49:00;;;;;;;30.23;18.38;;;;;;;7.02;100.00;99611.41;5019969;28;21297;-73
2024/03/31 03:51:26;;;;;;;28.92;18.40;;;;;;;7.05;100.00;99614.66;4999126;28;20053;-73
2024/03/31 03:53:51;;;;;;;30.52;18.58;;;;;;;7.08;100.00;99609.97;5003192;28;20030;-73
2024/03/31 03:56:17;;;;;;;30.33;19.02;;;;;;;7.29;100.00;99600.91;5018180;28;20409;-73
2024/03/31 03:58:42;;;;;;;30.30;17.90;;;;;;;7.22;100.00;99595.63;5023148;28;20060;-73
2024/03/31 04:01:08;;;;;;;30.08;18.08;;;;;;;7.22;100.00;99596.41;5020609;28;21568;-73
2024/03/31 04:03:34;;;;;;;30.88;18.08;;;;;;;7.16;100.00;99580.81;5037318;28;20033;-73
2024/03/31 04:05:59;;;;;;;30.73;18.27;;;;;;;7.14;100.00;99583.56;5034778;28;20037;-73
2024/03/31 04:08:25;;;;;;;30.58;18.25;;;;;;;7.11;100.00;99580.50;5020667;28;20381;-73
2024/03/31 04:10:52;;;;;;;28.88;17.17;;;;;;;7.13;100.00;99583.72;5021023;28;20041;-73
2024/03/31 04:13:17;;;;;;;31.50;16.88;;;;;;;7.09;100.00;99575.50;5017554;28;20081;-73
2024/03/31 04:15:43;;;;;;;28.88;18.00;;;;;;;7.09;100.00;99572.91;5017900;28;20033;-72
2024/03/31 04:18:09;;;;;;;29.83;18.20;;;;;;;7.08;100.00;99539.56;5006124;28;20035;-73
2024/03/31 04:20:41;;;;;;;29.80;18.52;;;;;;;7.09;100.00;99526.50;5004171;28;20030;-73
2024/03/31 04:23:07;;;;;;;31.15;18.00;;;;;;;7.17;100.00;99539.38;5003667;28;20045;-73
2024/03/31 04:25:33;;;;;;;27.98;16.90;;;;;;;7.15;100.00;99530.22;5019914;28;20030;-72
2024/03/31 04:27:58;;;;;;;25.55;15.93;;;;;;;7.13;100.00;99534.72;5000402;28;20049;-73
2024/03/31 04:30:24;;;;;;;27.83;15.70;;;;;;;7.14;100.00;99554.38;5002012;28;20084;-73
2024/03/31 04:32:50;;;;;;;24.45;15.32;;;;;;;7.16;100.00;99549.88;5004220;28;20046;-72
2024/03/31 04:35:16;;;;;;;28.33;14.90;;;;;;;7.31;100.00;99557.72;5021346;28;20080;-73
2024/03/31 04:37:46;;;;;;;26.02;14.45;;;;;;;7.42;100.00;99554.78;5018693;28;20743;-73
2024/03/31 04:40:11;;;;;;;29.73;13.63;;;;;;;7.39;100.00;99549.97;5017314;28;20042;-73
2024/03/31 04:42:37;;;;;;;26.23;14.23;;;;;;;7.54;100.00;99547.50;5019572;28;20034;-72
2024/03/31 04:45:03;;;;;;;26.45;13.55;;;;;;;7.48;100.00;99537.84;5030631;28;20481;-73
2024/03/31 04:47:29;;;;;;;25.88;13.00;;;;;;;7.51;100.00;99535.75;5023280;28;20038;-72
2024/03/31 04:49:54;;;;;;;18.55;11.15;;;;;;;7.58;100.00;99535.88;5013147;28;20080;-72
2024/03/31 04:52:23;;;;;;;19.95;12.75;;;;;;;7.41;100.00;99529.97;5022672;28;20050;-72
2024/03/31 04:54:49;;;;;;;23.85;12.57;;;;;;;7.41;100.00;99535.13;5023368;28;20083;-73
2024/03/31 04:57:14;;;;;;;26.50;12.80;;;;;;;7.39;100.00;99513.88;5005955;28;20042;-72
2024/03/31 04:59:40;;;;;;;18.88;12.20;;;;;;;7.38;100.00;99532.88;5028303;28;20045;-73
2024/03/31 05:02:05;;;;;;;25.20;12.35;;;;;;;7.61;100.00;99533.00;5024893;28;20034;-73
2024/03/31 05:04:32;;;;;;;25.88;12.20;;;;;;;7.44;100.00;99501.28;4993148;28;20452;-72
2024/03/31 05:06:57;;;;;;;26.25;12.88;;;;;;;7.49;100.00;99548.00;5021839;28;20084;-73
2024/03/31 05:09:23;;;;;;;21.48;11.93;;;;;;;7.56;100.00;99533.47;5013314;28;20029;-73
2024/03/31 05:11:48;;;;;;;22.85;11.15;;;;;;;7.56;100.00;99527.50;5024553;28;20050;-73
2024/03/31 05:14:14;;;;;;;24.30;11.73;;;;;;;7.54;100.00;99521.72;5008430;28;20036;-73
2024/03/31 05:16:39;;;;;;;22.88;10.90;;;;;;;7.51;100.00;99512.53;5023159;28;20038;-73
2024/03/31 05:19:05;;;;;;;21.27;11.52;;;;;;;7.60;100.00;99523.63;5006763;28;20540;-72
2024/03/31 05:21:33;;;;;;;22.05;11.15;;;;;;;7.49;100.00;99529.94;5008566;28;20030;-73
2024/03/31 05:23:58;;;;;;;18.85;10.13;;;;;;;7.46;100.00;99519.16;5023875;28;20053;-73
2024/03/31 05:26:29;;;;;;;24.50;10.32;;;;;;;7.54;100.00;99517.34;5024254;28;20169;-72
2024/03/31 05:28:55;;;;;;;19.90;10.40;;;;;;;7.54;100.00;99521.72;5008667;28;20527;-72
2024/03/31 05:31:20;;;;;;;21.23;11.15;;;;;;;7.46;100.00;99511.41;5009837;28;20053;-72
2024/03/31 05:33:55;;;;;;;23.02;10.38;;;;;;;7.50;100.00;99517.88;4995133;28;20037;-73
2024/03/31 05:36:21;;;;;;;24.67;10.02;;;;;;;7.56;100.00;99515.41;5025188;28;20122;-73
2024/03/31 05:38:47;;;;;;;28.52;9.85;;;;;;;7.56;100.00;99517.19;5024449;28;20034;-73
2024/03/31 05:41:17;;;;;;;20.77;9.32;;;;;;;7.60;100.00;99513.31;5024019;28;20034;-73
2024/03/31 05:43:44;;;;;;;25.42;9.98;;;;;;;7.66;100.00;99514.41;5025161;28;20030;-73
2024/03/31 05:46:09;;;;;;;21.23;9.45;;;;;;;7.57;100.00;99516.22;5022965;28;20038;-73
2024/03/31 05:48:35;;;;;;;20.98;9.38;;;;;;;7.63;100.00;99520.72;5022716;28;20045;-72
2024/03/31 05:51:00;;;;;;;26.15;10.38;;;;;;;7.63;100.00;99509.56;5023387;28;20099;-72
2024/03/31 05:53:27;;;;;;;26.15;9.77;;;;;;;7.55;100.00;99511.25;5008113;28;20116;-73
2024/03/31 05:55:53;;;;;;;21.60;10.02;;;;;;;7.71;100.00;99512.94;5000023;28;20092;-72
2024/03/31 05:58:19;;;;;;;18.48;8.55;;;;;;;7.77;100.00;99506.28;5002629;28;20037;-72
2024/03/31 06:00:44;;;;;;;25.02;9.55;;;;;;;7.87;100.00;99511.25;5022108;28;20510;-72
2024/03/31 06:03:11;;;;;;;24.38;9.63;;;;;;;7.77;100.00;99506.28;5022738;28;20030;-73
2024/03/31 06:05:36;;;;;;;18.15;8.27;;;;;;;7.83;100.00;99508.19;5004387;28;20026;-73
2024/03/31 06:08:02;;;;;;;25.27;8.23;;;;;;;7.90;100.00;99503.97;5007160;28;20033;-73
2024/03/31 06:10:28;;;;;;;17.65;7.28;;;;;;;7.91;100.00;99503.00;5036190;28;20037;-73
2024/03/31 06:12:53;;;;;;;23.63;8.30;;;;;;;7.97;100.00;99504.91;5019931;28;20057;-73
2024/03/31 06:15:19;;;;;;;23.23;7.55;;;;;;;7.95;100.00;99503.47;5020908;28;20030;-73
2024/03/31 06:17:45;;;;;;;13.85;7.57;;;;;;;8.00;100.00;99501.16;5006325;28;20408;-72
2024/03/31 06:20:12;;;;;;;20.63;8.02;;;;;;;8.08;100.00;99502.88;5034387;28;20033;-72
2024/03/31 06:22:39;;;;;;;19.95;6.40;;;;;;;7.97;100.00;99510.06;5021747;28;20493;-73
2024/03/31 06:25:05;;;;;;;23.83;6.30;;;;;;;8.15;100.00;99499.44;5024238;28;20046;-73
2024/03/31 06:27:34;;;;;;;18.67;5.18;;;;;;;8.17;100.00;99499.28;5006698;28;20560;-72
2024/03/31 06:30:00;;;;;;;10.07;4.55;;;;;;;8.33;100.00;99508.72;5003330;28;20503;-73
2024/03/31 06:32:26;;;;;;;20.48;4.70;;;;;;;8.44;100.00;99503.16;5022424;28;20038;-73
2024/03/31 06:34:52;;;;;;;16.13;4.18;;;;;;;8.52;100.00;99499.72;5024006;28;20243;-72
2024/03/31 06:37:18;;;;;;;20.67;5.93;;;;;;;8.62;100.00;99494.31;5006993;28;20038;-72
2024/03/31 06:39:45;;;;;;;16.00;4.30;;;;;;;8.76;100.00;99499.50;5030522;28;20049;-72
2024/03/31 06:42:11;;;;;;;15.93;4.57;;;;;;;8.85;100.00;99502.00;5021792;28;20046;-73
2024/03/31 06:44:37;;;;;;;17.80;3.40;;;;;;;9.02;100.00;99497.47;5004434;28;20085;-73
2024/03/31 06:47:03;;;;;;;25.65;4.97;;;;;;;9.12;100.00;99506.59;5022270;28;20040;-73
2024/03/31 06:49:28;;;;;;;12.93;3.70;;;;;;;9.37;100.00;99501.13;4993552;28;20548;-73
2024/03/31 06:51:54;;;;;;;20.25;4.47;;;;;;;9.66;100.00;99500.31;5005719;28;20030;-73
2024/03/31 06:54:19;;;;;;;18.58;3.40;;;;;;;10.06;100.00;99502.53;4988247;28;20030;-73
2024/03/31 06:56:45;;;;;;;23.90;5.10;;;;;;;10.62;100.00;99492.28;5008465;28;20037;-73
2024/03/31 06:59:10;;;;;;;15.95;3.38;;;;;;;11.43;100.00;99478.81;5004908;28;20045;-73
2024/03/31 07:01:36;;;;;;;14.52;2.50;;;;;;;12.17;100.00;99484.25;5020123;28;20030;-73
2024/03/31 07:04:02;;;;;;;16.73;3.58;;;;;;;12.73;100.00;99489.03;5021320;28;20030;-73
2024/03/31 07:06:29;;;;;;;10.55;2.65;;;;;;;13.30;100.00;99489.34;5005337;28;20057;-73
2024/03/31 07:08:55;;;;;;;7.93;2.60;;;;;;;12.62;100.00;99490.44;5004575;28;20036;-73
2024/03/31 07:11:20;;;;;;;12.32;2.55;;;;;;;11.95;100.00;99486.19;5022363;28;20449;-73
2024/03/31 07:13:46;;;;;;;15.50;2.72;;;;;;;12.58;100.00;99485.84;5001714;28;20041;-73
2024/03/31 07:16:12;;;;;;;12.10;2.35;;;;;;;12.01;100.00;99478.38;4990186;28;20045;-73
2024/03/31 07:18:38;;;;;;;19.92;3.20;;;;;;;11.33;100.00;99485.34;5020530;28;20038;-73
2024/03/31 07:21:03;;;;;;;19.10;3.45;;;;;;;11.15;100.00;99491.84;5007927;28;20515;-73
2024/03/31 07:23:29;;;;;;;10.73;2.67;;;;;;;11.02;100.00;99492.56;4989936;28;20038;-73
2024/03/31 07:25:55;;;;;;;14.10;2.72;;;;;;;10.93;100.00;99487.72;5020152;28;20033;-73
2024/03/31 07:28:21;;;;;;;14.35;3.47;;;;;;;10.84;100.00;99485.25;5004534;28;20034;-73
2024/03/31 07:30:46;;;;;;;21.83;2.60;;;;;;;10.72;100.00;99486.78;5002785;28;20025;-73
2024/03/31 07:33:12;;;;;;;21.67;3.20;;;;;;;10.73;100.00;99483.19;5037807;28;20096;-73
2024/03/31 07:35:38;;;;;;;23.15;2.75;;;;;;;10.78;100.00;99480.84;5015541;28;20096;-73
2024/03/31 07:38:03;;;;;;;16.17;2.53;;;;;;;10.83;100.00;99481.09;5006839;28;20045;-73
2024/03/31 07:40:30;;;;;;;13.70;3.00;;;;;;;10.72;100.00;99489.38;5002295;28;20030;-73
2024/03/31 07:42:56;;;;;;;17.77;2.80;;;;;;;10.67;100.00;99482.16;5022865;28;20026;-73
2024/03/31 07:45:22;;;;;;;16.23;3.55;;;;;;;11.13;100.00;99467.88;5006924;28;20412;-73
2024/03/31 07:47:47;;;;;;;15.52;2.53;;;;;;;11.40;100.00;99465.41;5038244;28;20061;-73
2024/03/31 07:50:13;;;;;;;15.23;3.15;;;;;;;11.12;100.00;99462.91;5009251;28;20053;-73
2024/03/31 07:52:38;;;;;;;17.08;2.83;;;;;;;10.90;100.00;99462.97;5023726;28;20045;-73
2024/03/31 07:55:04;;;;;;;14.32;2.40;;;;;;;10.78;100.00;99467.09;5009143;28;20036;-73
2024/03/31 07:57:30;;;;;;;16.40;2.25;;;;;;;10.80;100.00;99467.69;5000088;28;20068;-72
2024/03/31 07:59:55;;;;;;;11.02;1.88;;;;;;;11.06;100.00;99478.22;5003712;28;20029;-73
2024/03/31 08:02:21;;;;;;;18.10;2.40;;;;;;;11.78;100.00;99475.31;5008377;28;20563;-73
2024/03/31 08:04:46;;;;;;;17.33;2.47;;;;;;;12.75;100.00;99474.03;5006521;28;20034;-73
2024/03/31 08:07:12;;;;;;;15.20;2.42;;;;;;;13.14;100.00;99472.34;5020585;28;20788;-73
2024/03/31 08:09:37;;;;;;;16.27;3.13;;;;;;;13.47;99.57;99473.25;5023004;28;20030;-73
2024/03/31 08:12:03;;;;;;;14.07;2.20;;;;;;;13.81;95.96;99469.50;5006724;28;20027;-73
2024/03/31 08:14:28;;;;;;;18.33;2.08;;;;;;;13.96;93.07;99470.00;5007820;28;20029;-73
2024/03/31 08:16:54;;;;;;;14.25;2.20;;;;;;;14.16;92.01;99475.06;5004861;28;20061;-73
2024/03/31 08:19:19;;;;;;;14.43;3.60;;;;;;;14.53;89.95;99466.56;5024090;28;20072;-73
2024/03/31 08:21:45;;;;;;;12.23;1.80;;;;;;;14.64;88.09;99467.72;5006842;28;20149;-73
2024/03/31 08:24:10;;;;;;;16.42;2.58;;;;;;;14.39;88.57;99466.69;5023531;28;20088;-74
2024/03/31 08:26:36;;;;;;;17.38;2.22;;;;;;;14.44;88.81;99462.63;5008541;28;20080;-73
2024/03/31 08:29:01;;;;;;;20.80;2.78;;;;;;;15.07;86.67;99452.03;5008657;28;20042;-72
2024/03/31 08:31:27;;;;;;;14.23;2.30;;;;;;;15.05;83.90;99454.06;5006757;28;20085;-73
2024/03/31 08:33:52;;;;;;;21.90;2.30;;;;;;;14.61;87.02;99455.88;5009204;28;20103;-74
2024/03/31 08:36:17;;;;;;;11.38;2.53;;;;;;;14.46;86.23;99453.59;5020947;28;20422;-73
2024/03/31 08:38:43;;;;;;;20.40;2.00;;;;;;;14.46;87.16;99450.19;5011583;28;20408;-74
2024/03/31 08:41:09;;;;;;;21.38;2.83;;;;;;;13.93;88.66;99451.38;5026520;28;20509;-73
2024/03/31 08:43:40;;;;;;;8.95;1.67;;;;;;;13.75;88.38;99452.06;5025943;28;20475;-73
2024/03/31 08:46:06;;;;;;;16.02;1.80;;;;;;;13.64;89.04;99443.13;5012903;28;20553;-73
2024/03/31 08:48:32;;;;;;;12.77;1.52;;;;;;;13.65;88.57;99430.91;5006962;28;20532;-73
2024/03/31 08:50:58;;;;;;;17.35;1.92;;;;;;;14.18;87.36;99436.56;5012060;28;20041;-73
2024/03/31 08:53:25;;;;;;;8.48;2.33;;;;;;;14.32;84.15;99428.66;5009315;28;20057;-73
2024/03/31 08:55:51;;;;;;;13.80;1.73;;;;;;;14.06;85.25;99429.66;5010152;28;20119;-73
2024/03/31 08:58:16;;;;;;;14.52;2.20;;;;;;;14.30;85.14;99425.47;5004960;28;20034;-75
2024/03/31 09:00:43;;;;;;;12.43;1.52;;;;;;;14.62;83.85;99418.38;5009197;28;20042;-74
2024/03/31 09:03:09;;;;;;;11.77;1.50;;;;;;;14.93;82.52;99411.41;5009790;28;20021;-73
2024/03/31 09:05:36;;;;;;;14.45;1.80;;;;;;;14.68;81.85;99416.72;5010021;28;20092;-74
2024/03/31 09:08:02;;;;;;;14.88;1.95;;;;;;;14.87;80.67;99413.09;5010523;28;20037;-74
2024/03/31 09:10:28;;;;;;;13.32;1.85;;;;;;;15.62;79.13;99406.75;5008951;28;20034;-74
2024/03/31 09:12:53;;;;;;;14.73;2.25;;;;;;;15.63;76.38;99413.53;5006644;28;20057;-74
2024/03/31 09:15:19;;;;;;;14.80;1.80;;;;;;;15.91;75.90;99404.34;5025767;28;20033;-73
2024/03/31 09:17:45;;;;;;;12.40;2.08;;;;;;;16.50;75.09;99409.59;5005698;28;20034;-74
2024/03/31 09:20:11;;;;;;;21.35;2.05;;;;;;;16.37;72.79;99407.22;5021233;28;20069;-73
2024/03/31 09:22:39;;;;;;;15.55;1.83;;;;;;;16.67;73.43;99407.91;5005646;28;20647;-73
2024/03/31 09:25:04;;;;;;;17.17;1.63;;;;;;;16.62;69.91;99402.56;5010149;28;20153;-74
2024/03/31 09:27:30;;;;;;;13.75;1.35;;;;;;;16.30;68.14;99413.38;5009845;28;20504;-74
2024/03/31 09:29:58;;;;;;;11.20;1.38;;;;;;;16.09;69.26;99414.72;5023147;28;20065;-74
2024/03/31 09:32:25;;;;;;;11.38;2.00;;;;;;;16.34;69.14;99409.25;5003849;28;20030;-74
2024/03/31 09:34:51;;;;;;;12.52;1.38;;;;;;;16.47;68.36;99397.78;5005855;28;20133;-73
2024/03/31 09:37:16;;;;;;;10.32;1.52;;;;;;;16.71;69.67;99393.31;5006681;28;20592;-74
2024/03/31 09:39:43;;;;;;;16.38;2.55;;;;;;;16.63;67.55;99401.53;5012362;28;20088;-74
2024/03/31 09:42:09;;;;;;;19.17;1.88;;;;;;;16.77;68.93;99396.06;5024139;28;20496;-74
2024/03/31 09:44:43;;;;;;;14.65;2.55;;;;;;;16.86;68.31;99395.50;5028870;28;20034;-73
2024/03/31 09:47:35;;;;;;;18.52;2.47;;;;;;;17.05;67.59;99396.13;5006503;28;20034;-74
2024/03/31 09:50:14;;;;;;;16.70;2.22;;;;;;;16.86;68.22;99392.88;5007895;28;20141;-73
2024/03/31 09:52:42;;;;;;;20.88;2.55;;;;;;;17.19;70.46;99391.41;5036754;28;20045;-74
2024/03/31 09:55:11;;;;;;;13.55;1.80;;;;;;;17.12;65.39;99396.78;5008849;28;20038;-75
2024/03/31 09:57:42;;;;;;;12.70;1.85;;;;;;;17.01;65.40;99402.03;5009825;28;20034;-74
2024/03/31 10:00:10;;;;;;;14.52;1.85;;;;;;;16.77;65.44;99403.91;5024276;28;20501;-75
2024/03/31 10:02:37;;;;;;;18.13;2.15;;;;;;;16.82;65.19;99407.47;5010079;28;20084;-75
2024/03/31 10:05:10;;;;;;;18.90;2.42;;;;;;;16.95;64.80;99402.97;5002356;28;20033;-74
2024/03/31 10:07:38;;;;;;;14.73;2.05;;;;;;;17.08;63.84;99400.91;5036011;28;20041;-73
2024/03/31 10:10:05;;;;;;;18.10;2.17;;;;;;;16.93;62.88;99405.81;5021369;28;20060;-74
2024/03/31 10:12:33;;;;;;;8.27;1.88;;;;;;;16.87;63.10;99412.78;5001731;28;20089;-74
2024/03/31 10:15:01;;;;;;;16.83;2.38;;;;;;;16.95;62.63;99406.38;5006801;28;20513;-74
2024/03/31 10:17:28;;;;;;;16.08;1.60;;;;;;;16.68;62.37;99406.84;5021473;28;20034;-74
2024/03/31 10:19:56;;;;;;;8.70;1.23;;;;;;;16.85;62.21;99399.13;5024100;28;20072;-75
2024/03/31 10:22:24;;;;;;;11.07;1.30;;;;;;;16.65;61.79;99401.28;5022078;28;20033;-74
2024/03/31 10:24:51;;;;;;;16.15;2.50;;;;;;;16.77;62.54;99394.22;5007705;28;20532;-74
2024/03/31 10:27:17;;;;;;;17.85;2.17;;;;;;;16.78;60.83;99398.41;5008116;28;20042;-74
2024/03/31 10:29:45;;;;;;;18.23;2.53;;;;;;;16.66;61.00;99395.03;4992201;28;20124;-73
2024/03/31 10:32:11;;;;;;;16.58;2.08;;;;;;;16.89;62.86;99397.63;5004897;28;20084;-75
2024/03/31 10:34:38;;;;;;;12.02;1.48;;;;;;;16.91;61.97;99392.16;5024143;28;20034;-74
2024/03/31 10:37:13;;;;;;;17.70;2.45;;;;;;;17.06;61.32;99396.91;5018465;28;20038;-74
2024/03/31 10:39:42;;;;;;;13.68;1.65;;;;;;;17.21;61.94;99385.94;5008099;28;20045;-74
2024/03/31 10:42:08;;;;;;;20.23;2.60;;;;;;;17.61;63.75;99385.88;5007043;28;20030;-74
2024/03/31 10:44:33;;;;;;;14.07;2.13;;;;;;;17.84;62.81;99384.97;5019983;28;20038;-74
2024/03/31 10:46:59;;;;;;;11.68;2.55;;;;;;;17.74;60.29;99376.91;5004954;28;20030;-74
2024/03/31 10:49:41;;;;;;;11.48;1.58;;;;;;;17.59;60.22;99387.13;5021391;28;20044;-75
2024/03/31 10:52:14;;;;;;;10.98;1.70;;;;;;;17.88;63.61;99372.97;5010535;28;20034;-76
2024/03/31 10:54:41;;;;;;;22.65;2.17;;;;;;;18.06;61.18;99371.94;5012797;28;20038;-73
2024/03/31 10:57:13;;;;;;;12.73;2.00;;;;;;;18.05;61.19;99378.22;5004739;28;20512;-75
2024/03/31 10:59:41;;;;;;;7.23;1.27;;;;;;;17.95;58.86;99374.63;5021039;28;20026;-75
2024/03/31 11:02:13;;;;;;;8.27;1.67;;;;;;;17.97;59.62;99362.88;5006281;28;20568;-75
2024/03/31 11:04:38;;;;;;;22.73;1.85;;;;;;;17.76;59.28;99371.41;5036530;28;20065;-74
2024/03/31 11:07:10;;;;;;;13.32;1.85;;;;;;;17.68;59.58;99365.53;5017987;28;20050;-73
2024/03/31 11:09:40;;;;;;;15.30;2.00;;;;;;;17.75;60.22;99372.47;5022223;28;20112;-73
2024/03/31 11:12:11;;;;;;;14.05;2.90;;;;;;;17.80;61.49;99362.03;5005971;28;20037;-75
2024/03/31 11:14:38;;;;;;;10.57;1.60;;;;;;;17.80;61.01;99362.03;5023955;28;20084;-75
2024/03/31 11:17:04;;;;;;;11.80;1.33;;;;;;;17.87;57.91;99363.50;5021983;28;20041;-75